createdAt,value
2018-07-27T00:00:20.384Z,22.86
2018-07-27T00:01:20.385Z,22.82
2018-07-27T00:02:20.380Z,22.91
2018-07-27T00:03:20.380Z,22.83
2018-07-27T00:04:20.375Z,22.83
2018-07-27T00:05:20.120Z,22.76
2018-07-27T00:06:20.373Z,22.79
2018-07-27T00:07:20.118Z,22.79
2018-07-27T00:08:20.372Z,22.76
2018-07-27T00:09:20.378Z,22.75
2018-07-27T00:10:33.101Z,22.73
2018-07-27T00:11:20.364Z,22.67
2018-07-27T00:12:20.365Z,22.67
2018-07-27T00:13:20.381Z,22.73
2018-07-27T00:14:20.367Z,22.61
2018-07-27T00:15:20.362Z,22.62
2018-07-27T00:16:20.108Z,22.54
2018-07-27T00:17:20.106Z,22.61
2018-07-27T00:18:20.360Z,22.57
2018-07-27T00:19:20.370Z,22.52
2018-07-27T00:20:20.358Z,22.54
2018-07-27T00:21:20.350Z,22.52
2018-07-27T00:22:20.361Z,22.49
2018-07-27T00:23:20.349Z,22.55
2018-07-27T00:24:20.350Z,22.51
2018-07-27T00:25:20.342Z,22.43
2018-07-27T00:26:20.345Z,22.47
2018-07-27T00:27:20.089Z,22.43
2018-07-27T00:28:20.343Z,22.47
2018-07-27T00:29:20.345Z,22.43
2018-07-27T00:30:20.337Z,22.36
2018-07-27T00:31:20.337Z,22.39
2018-07-27T00:32:20.332Z,22.36
2018-07-27T00:33:20.333Z,22.37
2018-07-27T00:34:20.331Z,22.37
2018-07-27T00:35:20.332Z,22.36
2018-07-27T00:36:20.075Z,22.28
2018-07-27T00:37:20.071Z,22.31
2018-07-27T00:38:20.333Z,22.27
2018-07-27T00:39:20.328Z,22.21
2018-07-27T00:40:20.323Z,22.21
2018-07-27T00:41:20.317Z,22.22
2018-07-27T00:42:20.331Z,22.24
2018-07-27T00:43:20.335Z,22.27
2018-07-27T00:44:20.324Z,22.22
2018-07-27T00:45:20.060Z,22.24
2018-07-27T00:46:20.309Z,22.22
2018-07-27T00:47:20.326Z,22.24
2018-07-27T00:48:20.315Z,22.18
2018-07-27T00:49:20.054Z,22.2
2018-07-27T00:50:20.304Z,22.2
2018-07-27T00:51:20.052Z,22.17
2018-07-27T00:52:20.310Z,22.21
2018-07-27T00:53:20.049Z,22.15
2018-07-27T00:54:20.048Z,22.1
2018-07-27T00:55:20.045Z,22.12
2018-07-27T00:56:20.294Z,22.1
2018-07-27T00:57:26.555Z,22.06
2018-07-27T00:58:20.287Z,22.06
2018-07-27T00:59:20.289Z,22.1
2018-07-27T01:00:20.041Z,22.03
2018-07-27T01:01:20.282Z,21.99
2018-07-27T01:02:20.284Z,22.06
2018-07-27T01:03:20.032Z,21.98
2018-07-27T01:04:20.033Z,21.91
2018-07-27T01:05:20.026Z,21.91
2018-07-27T01:06:20.283Z,21.9
2018-07-27T01:07:20.278Z,21.9
2018-07-27T01:08:20.282Z,21.91
2018-07-27T01:09:20.268Z,21.94
2018-07-27T01:10:20.268Z,21.83
2018-07-27T01:11:20.021Z,21.86
2018-07-27T01:12:20.269Z,21.86
2018-07-27T01:13:20.263Z,21.83
2018-07-27T01:14:20.015Z,21.82
2018-07-27T01:15:20.257Z,21.8
2018-07-27T01:16:20.005Z,21.8
2018-07-27T01:17:20.264Z,21.72
2018-07-27T01:18:20.259Z,21.69
2018-07-27T01:19:21.462Z,21.65
2018-07-27T01:20:20.005Z,21.75
2018-07-27T01:21:20.259Z,21.65
2018-07-27T01:22:20.244Z,21.65
2018-07-27T01:23:20.247Z,21.54
2018-07-27T01:24:19.993Z,21.53
2018-07-27T01:25:20.239Z,21.61
2018-07-27T01:26:20.234Z,21.56
2018-07-27T01:27:19.981Z,21.61
2018-07-27T01:28:19.984Z,21.47
2018-07-27T01:29:19.978Z,21.44
2018-07-27T01:30:20.241Z,21.5
2018-07-27T01:31:20.227Z,21.47
2018-07-27T01:32:20.223Z,21.47
2018-07-27T01:34:20.218Z,21.4
2018-07-27T01:35:20.228Z,21.4
2018-07-27T01:36:20.217Z,21.38
2018-07-27T01:37:34.891Z,21.34
2018-07-27T01:38:20.209Z,21.29
2018-07-27T01:40:20.260Z,21.25
2018-07-27T01:42:20.203Z,21.4
2018-07-27T01:43:20.203Z,21.35
2018-07-27T01:44:20.198Z,21.29
2018-07-27T01:45:20.197Z,21.28
2018-07-27T01:46:20.196Z,21.29
2018-07-27T01:47:20.194Z,21.25
2018-07-27T01:48:20.189Z,21.29
2018-07-27T01:49:20.187Z,21.17
2018-07-27T01:50:20.189Z,21.25
2018-07-27T01:51:20.188Z,21.22
2018-07-27T01:52:20.179Z,21.22
2018-07-27T01:53:19.937Z,21.19
2018-07-27T01:54:20.176Z,21.17
2018-07-27T01:55:20.179Z,21.13
2018-07-27T01:56:20.169Z,21.22
2018-07-27T01:57:20.170Z,21.19
2018-07-27T01:58:19.915Z,21.19
2018-07-27T01:59:20.167Z,21.13
2018-07-27T02:00:20.166Z,21.17
2018-07-27T02:01:20.164Z,21.09
2018-07-27T02:02:20.161Z,21.21
2018-07-27T02:03:20.156Z,21.19
2018-07-27T02:04:20.155Z,21.14
2018-07-27T02:05:20.153Z,21.12
2018-07-27T02:06:20.156Z,21.12
2018-07-27T02:07:20.147Z,21.14
2018-07-27T02:08:20.150Z,21.1
2018-07-27T02:09:19.895Z,21.07
2018-07-27T02:10:19.888Z,21.14
2018-07-27T02:11:20.137Z,21.1
2018-07-27T02:12:20.142Z,21.13
2018-07-27T02:13:19.885Z,21.04
2018-07-27T02:14:20.133Z,21.07
2018-07-27T02:15:19.877Z,21.03
2018-07-27T02:16:20.185Z,21.01
2018-07-27T02:17:20.129Z,20.98
2018-07-27T02:18:20.121Z,20.95
2018-07-27T02:19:20.122Z,20.99
2018-07-27T02:20:20.118Z,20.95
2018-07-27T02:21:20.126Z,20.99
2018-07-27T02:22:20.109Z,20.99
2018-07-27T02:23:20.114Z,20.97
2018-07-27T02:24:19.605Z,20.91
2018-07-27T02:25:20.112Z,20.95
2018-07-27T02:26:20.100Z,20.91
2018-07-27T02:27:20.104Z,20.98
2018-07-27T02:28:20.099Z,20.89
2018-07-27T02:29:20.101Z,20.88
2018-07-27T02:30:19.849Z,20.91
2018-07-27T02:32:20.092Z,20.8
2018-07-27T02:33:20.088Z,20.82
2018-07-27T02:34:20.086Z,20.77
2018-07-27T02:36:20.083Z,20.8
2018-07-27T02:37:23.845Z,20.77
2018-07-27T02:38:20.078Z,20.73
2018-07-27T02:39:20.077Z,20.73
2018-07-27T02:40:20.076Z,20.7
2018-07-27T02:41:20.071Z,20.69
2018-07-27T02:42:20.067Z,20.72
2018-07-27T02:43:20.064Z,20.73
2018-07-27T02:44:20.058Z,20.7
2018-07-27T02:45:20.064Z,20.67
2018-07-27T02:46:19.803Z,20.73
2018-07-27T02:47:20.057Z,20.72
2018-07-27T02:48:20.053Z,20.61
2018-07-27T02:49:20.058Z,20.64
2018-07-27T02:50:20.049Z,20.66
2018-07-27T02:51:20.207Z,20.58
2018-07-27T02:52:20.046Z,20.54
2018-07-27T02:53:20.041Z,20.62
2018-07-27T02:54:20.032Z,20.64
2018-07-27T02:55:20.033Z,20.64
2018-07-27T02:56:20.434Z,20.61
2018-07-27T02:57:20.023Z,20.66
2018-07-27T02:58:20.022Z,20.58
2018-07-27T02:59:20.018Z,20.58
2018-07-27T03:00:20.016Z,20.61
2018-07-27T03:01:19.513Z,20.55
2018-07-27T03:02:20.026Z,20.62
2018-07-27T03:03:20.016Z,20.55
2018-07-27T03:04:19.760Z,20.54
2018-07-27T03:05:19.753Z,20.55
2018-07-27T03:06:20.010Z,20.57
2018-07-27T03:07:19.752Z,20.54
2018-07-27T03:08:20.000Z,20.55
2018-07-27T03:09:20.001Z,20.51
2018-07-27T03:10:19.989Z,20.54
2018-07-27T03:11:19.989Z,20.54
2018-07-27T03:12:19.987Z,20.54
2018-07-27T03:13:19.982Z,20.55
2018-07-27T03:14:20.060Z,20.51
2018-07-27T03:16:19.977Z,20.51
2018-07-27T03:17:19.972Z,20.51
2018-07-27T03:18:19.974Z,20.58
2018-07-27T03:19:19.975Z,20.48
2018-07-27T03:20:19.971Z,20.55
2018-07-27T03:21:19.962Z,20.58
2018-07-27T03:22:19.970Z,20.54
2018-07-27T03:23:19.964Z,20.57
2018-07-27T03:24:19.956Z,20.55
2018-07-27T03:25:19.962Z,20.54
2018-07-27T03:26:19.950Z,20.57
2018-07-27T03:27:19.948Z,20.54
2018-07-27T03:28:19.943Z,20.54
2018-07-27T03:29:19.693Z,20.59
2018-07-27T03:30:19.694Z,20.62
2018-07-27T03:31:19.955Z,20.61
2018-07-27T03:32:19.941Z,20.62
2018-07-27T03:33:19.981Z,20.61
2018-07-27T03:34:19.931Z,20.61
2018-07-27T03:35:19.422Z,20.66
2018-07-27T03:36:19.927Z,20.62
2018-07-27T03:37:19.928Z,20.66
2018-07-27T03:38:19.791Z,20.52
2018-07-27T03:39:19.925Z,20.62
2018-07-27T03:40:19.917Z,20.64
2018-07-27T03:41:19.915Z,20.61
2018-07-27T03:42:20.078Z,20.66
2018-07-27T03:43:19.908Z,20.73
2018-07-27T03:44:19.654Z,20.7
2018-07-27T03:45:19.657Z,20.73
2018-07-27T03:46:19.902Z,20.66
2018-07-27T03:47:19.900Z,20.74
2018-07-27T03:48:19.901Z,20.69
2018-07-27T03:49:19.638Z,20.84
2018-07-27T03:50:19.905Z,20.77
2018-07-27T03:51:19.633Z,20.82
2018-07-27T03:52:19.886Z,20.82
2018-07-27T03:53:19.879Z,20.95
2018-07-27T03:54:19.884Z,20.89
2018-07-27T03:55:19.624Z,20.94
2018-07-27T03:56:19.874Z,21.03
2018-07-27T03:57:19.867Z,21.03
2018-07-27T03:58:19.869Z,21.13
2018-07-27T03:59:19.871Z,21.16
2018-07-27T04:00:19.864Z,21.17
2018-07-27T04:01:19.866Z,21.34
2018-07-27T04:02:20.026Z,21.42
2018-07-27T04:03:19.605Z,21.49
2018-07-27T04:04:19.865Z,21.59
2018-07-27T04:05:19.605Z,21.72
2018-07-27T04:06:19.851Z,21.84
2018-07-27T04:07:20.008Z,21.98
2018-07-27T04:08:19.900Z,22.03
2018-07-27T04:09:19.847Z,22.24
2018-07-27T04:10:19.601Z,22.21
2018-07-27T04:11:19.846Z,22.39
2018-07-27T04:12:19.847Z,22.42
2018-07-27T04:13:19.848Z,22.57
2018-07-27T04:14:19.843Z,22.68
2018-07-27T04:15:19.888Z,22.77
2018-07-27T04:16:19.842Z,22.83
2018-07-27T04:17:19.839Z,22.9
2018-07-27T04:18:19.837Z,23.09
2018-07-27T04:19:19.835Z,23.2
2018-07-27T04:20:19.837Z,23.46
2018-07-27T04:21:19.835Z,23.51
2018-07-27T04:22:19.902Z,23.63
2018-07-27T04:23:19.834Z,23.78
2018-07-27T04:24:19.332Z,23.97
2018-07-27T04:25:19.834Z,24.08
2018-07-27T04:26:19.711Z,24.15
2018-07-27T04:27:19.835Z,24.27
2018-07-27T04:28:19.837Z,24.37
2018-07-27T04:29:19.836Z,24.45
2018-07-27T04:30:19.838Z,24.5
2018-07-27T04:31:19.850Z,24.53
2018-07-27T04:32:19.861Z,24.68
2018-07-27T04:33:19.857Z,24.84
2018-07-27T04:34:19.840Z,25.03
2018-07-27T04:35:19.846Z,25.14
2018-07-27T04:36:19.855Z,25.18
2018-07-27T04:37:19.848Z,25.24
2018-07-27T04:38:19.859Z,25.38
2018-07-27T04:39:19.851Z,25.39
2018-07-27T04:40:19.854Z,25.57
2018-07-27T04:41:19.639Z,25.64
2018-07-27T04:42:19.861Z,25.73
2018-07-27T04:43:19.618Z,25.87
2018-07-27T04:44:19.871Z,26.05
2018-07-27T04:45:19.871Z,26.2
2018-07-27T04:46:19.872Z,26.3
2018-07-27T04:47:19.891Z,26.37
2018-07-27T04:48:19.890Z,26.54
2018-07-27T04:49:19.978Z,26.51
2018-07-27T04:50:19.634Z,26.63
2018-07-27T04:51:19.642Z,26.6
2018-07-27T04:52:19.641Z,26.63
2018-07-27T04:53:19.652Z,26.66
2018-07-27T04:54:19.902Z,26.76
2018-07-27T04:55:19.914Z,26.92
2018-07-27T04:56:20.044Z,27.13
2018-07-27T04:57:19.664Z,27.28
2018-07-27T04:58:19.919Z,27.63
2018-07-27T04:59:19.927Z,27.82
2018-07-27T05:00:19.937Z,28.17
2018-07-27T05:01:19.934Z,28.41
2018-07-27T05:02:19.436Z,28.58
2018-07-27T05:03:19.959Z,28.83
2018-07-27T05:04:19.953Z,28.92
2018-07-27T05:05:19.962Z,29.06
2018-07-27T05:06:19.975Z,29.26
2018-07-27T05:07:19.974Z,29.48
2018-07-27T05:08:19.979Z,29.6
2018-07-27T05:09:19.986Z,29.65
2018-07-27T05:10:20.022Z,29.95
2018-07-27T05:11:19.747Z,30.01
2018-07-27T05:12:20.008Z,30.07
2018-07-27T05:13:20.013Z,30.29
2018-07-27T05:14:20.022Z,30.35
2018-07-27T05:15:20.025Z,30.53
2018-07-27T05:16:20.032Z,30.76
2018-07-27T05:17:20.088Z,30.95
2018-07-27T05:18:20.308Z,31.16
2018-07-27T05:19:20.053Z,31.36
2018-07-27T05:20:20.061Z,31.48
2018-07-27T05:21:19.820Z,31.76
2018-07-27T05:22:21.496Z,31.78
2018-07-27T05:23:20.090Z,31.7
2018-07-27T05:24:20.093Z,31.75
2018-07-27T05:25:20.105Z,31.88
2018-07-27T05:26:20.110Z,31.91
2018-07-27T05:27:20.122Z,32.01
2018-07-27T05:28:20.131Z,32.08
2018-07-27T05:29:20.141Z,32.38
2018-07-27T05:30:20.147Z,32.59
2018-07-27T05:31:20.162Z,32.62
2018-07-27T05:32:20.165Z,32.82
2018-07-27T05:33:20.179Z,32.88
2018-07-27T05:34:20.320Z,32.96
2018-07-27T05:35:19.692Z,32.97
2018-07-27T05:36:20.202Z,33.16
2018-07-27T05:37:19.968Z,33.16
2018-07-27T05:38:19.969Z,33.35
2018-07-27T05:39:20.234Z,33.54
2018-07-27T05:40:32.723Z,33.72
2018-07-27T05:41:20.004Z,33.84
2018-07-27T05:42:21.538Z,33.91
2018-07-27T05:43:20.271Z,34.03
2018-07-27T05:44:20.283Z,34.13
2018-07-27T05:45:20.292Z,34.21
2018-07-27T05:46:20.050Z,34.47
2018-07-27T05:47:20.417Z,34.7
2018-07-27T05:48:20.328Z,34.97
2018-07-27T05:49:20.335Z,35.15
2018-07-27T05:50:20.344Z,35.38
2018-07-27T05:51:20.373Z,35.53
2018-07-27T05:52:20.113Z,35.59
2018-07-27T05:53:20.382Z,35.48
2018-07-27T05:54:20.394Z,35.45
2018-07-27T05:55:20.398Z,35.68
2018-07-27T05:56:20.411Z,35.85
2018-07-27T05:57:20.423Z,36.09
2018-07-27T05:58:20.476Z,36.44
2018-07-27T05:59:20.282Z,36.73
2018-07-27T06:00:20.454Z,36.78
2018-07-27T06:01:20.824Z,36.91
2018-07-27T06:02:22.073Z,36.88
2018-07-27T06:03:20.239Z,37.09
2018-07-27T06:04:20.504Z,37.32
2018-07-27T06:05:20.522Z,37.56
2018-07-27T06:06:20.531Z,37.49
2018-07-27T06:07:20.540Z,37.39
2018-07-27T06:08:20.309Z,37.44
2018-07-27T06:09:20.564Z,37.28
2018-07-27T06:10:20.325Z,37.25
2018-07-27T06:11:20.428Z,37.22
2018-07-27T06:12:20.350Z,37.18
2018-07-27T06:13:20.375Z,37.36
2018-07-27T06:14:20.385Z,37.43
2018-07-27T06:15:20.390Z,37.47
2018-07-27T06:16:20.655Z,37.66
2018-07-27T06:17:20.415Z,37.75
2018-07-27T06:18:20.814Z,37.78
2018-07-27T06:19:20.696Z,37.72
2018-07-27T06:20:20.706Z,37.72
2018-07-27T06:21:20.724Z,37.76
2018-07-27T06:22:20.494Z,37.78
2018-07-27T06:23:20.748Z,37.69
2018-07-27T06:24:21.208Z,37.51
2018-07-27T06:25:20.776Z,37.51
2018-07-27T06:26:20.797Z,37.57
2018-07-27T06:27:20.810Z,37.7
2018-07-27T06:28:20.661Z,37.7
2018-07-27T06:29:21.022Z,37.74
2018-07-27T06:30:20.861Z,37.86
2018-07-27T06:31:20.861Z,37.96
2018-07-27T06:32:20.881Z,38.06
2018-07-27T06:33:20.633Z,38.07
2018-07-27T06:34:20.898Z,38.19
2018-07-27T06:35:20.665Z,38.22
2018-07-27T06:36:20.926Z,38.28
2018-07-27T06:37:20.949Z,38.31
2018-07-27T06:38:20.705Z,38.5
2018-07-27T06:39:20.723Z,38.56
2018-07-27T06:40:20.744Z,38.6
2018-07-27T06:41:21.007Z,38.57
2018-07-27T06:42:21.016Z,38.66
2018-07-27T06:43:21.030Z,38.76
2018-07-27T06:44:21.047Z,38.81
2018-07-27T06:45:20.904Z,38.88
2018-07-27T06:46:21.076Z,38.84
2018-07-27T06:47:21.096Z,38.95
2018-07-27T06:48:20.858Z,39.13
2018-07-27T06:49:20.874Z,39.1
2018-07-27T06:50:21.141Z,39.14
2018-07-27T06:51:21.159Z,39.21
2018-07-27T06:52:21.215Z,39.26
2018-07-27T06:53:21.186Z,39.36
2018-07-27T06:54:21.201Z,39.43
2018-07-27T06:55:20.965Z,39.51
2018-07-27T06:56:21.237Z,39.6
2018-07-27T06:57:21.247Z,39.69
2018-07-27T06:58:21.271Z,39.89
2018-07-27T06:59:21.282Z,40.15
2018-07-27T07:00:21.047Z,40.27
2018-07-27T07:01:21.316Z,40.34
2018-07-27T07:02:20.828Z,40.16
2018-07-27T07:03:21.372Z,39.92
2018-07-27T07:04:21.366Z,39.94
2018-07-27T07:05:21.394Z,40.08
2018-07-27T07:06:21.397Z,40.22
2018-07-27T07:07:21.412Z,40.16
2018-07-27T07:08:21.434Z,40.27
2018-07-27T07:09:21.457Z,40.39
2018-07-27T07:10:21.213Z,40.57
2018-07-27T07:11:20.991Z,40.67
2018-07-27T07:12:21.531Z,40.88
2018-07-27T07:13:21.518Z,41.17
2018-07-27T07:14:21.611Z,41.55
2018-07-27T07:15:21.552Z,41.62
2018-07-27T07:16:21.574Z,41.71
2018-07-27T07:17:21.591Z,41.98
2018-07-27T07:18:21.639Z,42.16
2018-07-27T07:19:21.622Z,42.36
2018-07-27T07:20:21.676Z,42.66
2018-07-27T07:21:21.657Z,42.77
2018-07-27T07:22:21.676Z,42.73
2018-07-27T07:23:21.697Z,42.64
2018-07-27T07:24:21.715Z,42.68
2018-07-27T07:25:21.729Z,42.68
2018-07-27T07:26:21.751Z,42.83
2018-07-27T07:27:21.536Z,42.74
2018-07-27T07:28:21.535Z,42.59
2018-07-27T07:29:21.820Z,42.55
2018-07-27T07:30:21.571Z,42.4
2018-07-27T07:31:21.857Z,42.24
2018-07-27T07:32:21.916Z,42.13
2018-07-27T07:33:22.025Z,41.76
2018-07-27T07:34:21.925Z,41.32
2018-07-27T07:35:21.670Z,41.2
2018-07-27T07:36:21.943Z,41.13
2018-07-27T07:37:21.958Z,41.2
2018-07-27T07:38:21.976Z,41.14
2018-07-27T07:39:21.991Z,41.2
2018-07-27T07:40:21.763Z,41.29
2018-07-27T07:41:21.806Z,41.35
2018-07-27T07:42:22.050Z,41.52
2018-07-27T07:43:21.810Z,41.63
2018-07-27T07:44:22.097Z,41.57
2018-07-27T07:45:22.098Z,41.71
2018-07-27T07:46:22.163Z,41.89
2018-07-27T07:47:22.136Z,41.87
2018-07-27T07:48:21.911Z,41.91
2018-07-27T07:49:21.970Z,41.78
2018-07-27T07:50:22.196Z,41.67
2018-07-27T07:51:21.955Z,41.47
2018-07-27T07:52:22.227Z,41.42
2018-07-27T07:53:21.991Z,41.3
2018-07-27T07:54:22.260Z,41.23
2018-07-27T07:55:22.278Z,41.01
2018-07-27T07:56:22.045Z,40.84
2018-07-27T07:57:22.321Z,40.84
2018-07-27T07:58:22.333Z,40.8
2018-07-27T07:59:22.351Z,40.88
2018-07-27T08:00:22.376Z,40.88
2018-07-27T08:01:22.148Z,40.64
2018-07-27T08:02:22.410Z,40.26
2018-07-27T08:03:22.424Z,40.1
2018-07-27T08:04:22.625Z,39.81
2018-07-27T08:05:22.501Z,39.79
2018-07-27T08:06:22.492Z,39.67
2018-07-27T08:07:22.495Z,39.51
2018-07-27T08:08:22.525Z,39.48
2018-07-27T08:09:22.028Z,39.47
2018-07-27T08:10:22.559Z,39.54
2018-07-27T08:11:22.734Z,39.69
2018-07-27T08:12:22.603Z,39.82
2018-07-27T08:13:22.611Z,39.89
2018-07-27T08:14:24.304Z,39.77
2018-07-27T08:15:22.643Z,39.84
2018-07-27T08:16:22.658Z,39.86
2018-07-27T08:17:22.961Z,39.91
2018-07-27T08:18:22.698Z,39.98
2018-07-27T08:19:22.214Z,40.03
2018-07-27T08:20:22.738Z,40.26
2018-07-27T08:21:22.507Z,40.38
2018-07-27T08:22:24.875Z,40.54
2018-07-27T08:23:22.290Z,40.53
2018-07-27T08:24:22.559Z,40.53
2018-07-27T08:25:22.578Z,40.65
2018-07-27T08:26:22.859Z,40.74
2018-07-27T08:27:22.875Z,40.48
2018-07-27T08:28:22.890Z,40.26
2018-07-27T08:29:22.925Z,40.13
2018-07-27T08:30:22.427Z,39.62
2018-07-27T08:31:22.968Z,39.11
2018-07-27T08:32:22.965Z,38.74
2018-07-27T08:33:22.724Z,38.38
2018-07-27T08:34:22.742Z,38.12
2018-07-27T08:35:23.008Z,37.94
2018-07-27T08:36:23.025Z,37.57
2018-07-27T08:37:22.787Z,37.49
2018-07-27T08:38:23.061Z,37.21
2018-07-27T08:39:23.079Z,37.12
2018-07-27T08:40:22.579Z,37.15
2018-07-27T08:41:23.100Z,37.06
2018-07-27T08:42:23.118Z,36.93
2018-07-27T08:43:23.128Z,36.87
2018-07-27T08:44:23.147Z,36.93
2018-07-27T08:45:23.156Z,36.99
2018-07-27T08:46:23.166Z,37.13
2018-07-27T08:47:23.111Z,37.17
2018-07-27T08:48:23.218Z,37.2
2018-07-27T08:49:23.213Z,37.05
2018-07-27T08:50:23.227Z,36.81
2018-07-27T08:51:23.239Z,36.75
2018-07-27T08:52:23.251Z,36.6
2018-07-27T08:53:23.263Z,36.46
2018-07-27T08:54:23.289Z,36.34
2018-07-27T08:55:23.295Z,36
2018-07-27T08:56:23.413Z,35.6
2018-07-27T08:57:23.324Z,35.45
2018-07-27T08:58:23.333Z,35.11
2018-07-27T08:59:23.097Z,34.64
2018-07-27T09:00:23.358Z,34.22
2018-07-27T09:01:23.122Z,33.9
2018-07-27T09:02:23.386Z,33.59
2018-07-27T09:03:23.398Z,33.35
2018-07-27T09:04:23.160Z,33.31
2018-07-27T09:05:23.433Z,33.09
2018-07-27T09:06:23.449Z,32.88
2018-07-27T09:07:23.439Z,32.69
2018-07-27T09:08:23.452Z,32.59
2018-07-27T09:09:23.458Z,32.43
2018-07-27T09:10:23.690Z,32.25
2018-07-27T09:11:23.490Z,32.11
2018-07-27T09:12:23.236Z,32.03
2018-07-27T09:13:23.497Z,31.88
2018-07-27T09:14:23.510Z,31.78
2018-07-27T09:15:23.263Z,31.65
2018-07-27T09:16:23.529Z,31.5
2018-07-27T09:17:23.831Z,31.34
2018-07-27T09:18:23.606Z,31.17
2018-07-27T09:19:23.313Z,31.04
2018-07-27T09:20:23.324Z,30.84
2018-07-27T09:21:23.569Z,30.77
2018-07-27T09:22:23.595Z,30.64
2018-07-27T09:23:23.586Z,30.75
2018-07-27T09:24:23.637Z,30.79
2018-07-27T09:25:24.839Z,30.7
2018-07-27T09:26:23.364Z,30.73
2018-07-27T09:27:23.624Z,30.76
2018-07-27T09:28:23.369Z,30.65
2018-07-27T09:29:23.635Z,30.62
2018-07-27T09:30:23.636Z,30.49
2018-07-27T09:31:23.136Z,30.54
2018-07-27T09:32:23.657Z,30.45
2018-07-27T09:33:23.403Z,30.43
2018-07-27T09:34:23.472Z,30.53
2018-07-27T09:35:23.469Z,30.46
2018-07-27T09:36:23.430Z,30.46
2018-07-27T09:37:23.432Z,30.35
2018-07-27T09:38:23.701Z,30.37
2018-07-27T09:39:23.447Z,30.31
2018-07-27T09:40:23.724Z,30.35
2018-07-27T09:41:23.717Z,30.31
2018-07-27T09:42:23.461Z,30.34
2018-07-27T09:43:23.469Z,30.37
2018-07-27T09:44:23.733Z,30.45
2018-07-27T09:45:23.484Z,30.47
2018-07-27T09:46:23.745Z,30.47
2018-07-27T09:47:23.747Z,30.6
2018-07-27T09:48:23.500Z,30.72
2018-07-27T09:49:23.756Z,30.94
2018-07-27T09:50:23.761Z,31.09
2018-07-27T09:51:23.770Z,31.17
2018-07-27T09:52:23.776Z,31.36
2018-07-27T09:53:23.783Z,31.47
2018-07-27T09:54:23.806Z,31.68
2018-07-27T09:55:23.551Z,31.75
2018-07-27T09:56:23.548Z,31.91
2018-07-27T09:57:23.839Z,31.78
2018-07-27T09:58:23.564Z,31.75
2018-07-27T09:59:23.835Z,31.73
2018-07-27T10:00:23.826Z,31.56
2018-07-27T10:01:23.847Z,31.43
2018-07-27T10:02:23.850Z,31.21
2018-07-27T10:03:23.849Z,31.19
2018-07-27T10:04:23.853Z,31.21
2018-07-27T10:05:23.871Z,31.14
2018-07-27T10:06:23.619Z,31.28
2018-07-27T10:07:23.878Z,31.31
2018-07-27T10:08:23.379Z,31.48
2018-07-27T10:09:23.888Z,31.44
2018-07-27T10:10:23.893Z,31.73
2018-07-27T10:11:23.900Z,31.99
2018-07-27T10:12:23.918Z,32.18
2018-07-27T10:13:23.671Z,32.28
2018-07-27T10:14:23.670Z,32.41
2018-07-27T10:15:23.681Z,32.45
2018-07-27T10:16:23.934Z,32.55
2018-07-27T10:17:23.939Z,32.55
2018-07-27T10:18:24.063Z,32.59
2018-07-27T10:19:23.453Z,32.35
2018-07-27T10:20:23.974Z,32.28
2018-07-27T10:21:23.968Z,32.25
2018-07-27T10:22:23.723Z,32.29
2018-07-27T10:23:23.984Z,32.28
2018-07-27T10:24:23.739Z,32.35
2018-07-27T10:25:23.995Z,32.32
2018-07-27T10:26:24.016Z,32.47
2018-07-27T10:27:24.011Z,32.51
2018-07-27T10:28:23.779Z,32.69
2018-07-27T10:29:23.789Z,32.77
2018-07-27T10:30:24.045Z,32.93
2018-07-27T10:31:23.997Z,33.04
2018-07-27T10:32:24.043Z,33.07
2018-07-27T10:33:23.801Z,33.16
2018-07-27T10:34:24.058Z,33.15
2018-07-27T10:35:24.073Z,33.16
2018-07-27T10:36:23.823Z,33.15
2018-07-27T10:37:23.829Z,33.01
2018-07-27T10:38:24.099Z,32.87
2018-07-27T10:39:23.839Z,32.81
2018-07-27T10:40:24.104Z,32.74
2018-07-27T10:41:24.106Z,32.66
2018-07-27T10:42:24.124Z,32.78
2018-07-27T10:43:23.625Z,32.82
2018-07-27T10:44:24.129Z,32.79
2018-07-27T10:45:24.135Z,32.82
2018-07-27T10:46:24.142Z,32.92
2018-07-27T10:47:24.158Z,32.99
2018-07-27T10:48:23.906Z,33.12
2018-07-27T10:49:24.178Z,33.15
2018-07-27T10:50:24.028Z,33.31
2018-07-27T10:51:24.183Z,33.26
2018-07-27T10:52:24.183Z,33.5
2018-07-27T10:53:24.201Z,33.53
2018-07-27T10:54:24.197Z,33.63
2018-07-27T10:55:23.955Z,33.72
2018-07-27T10:56:24.352Z,33.82
2018-07-27T10:57:24.222Z,33.86
2018-07-27T10:58:24.228Z,33.73
2018-07-27T10:59:24.261Z,33.81
2018-07-27T11:00:23.992Z,33.75
2018-07-27T11:01:24.258Z,33.81
2018-07-27T11:02:24.499Z,33.78
2018-07-27T11:03:24.017Z,33.78
2018-07-27T11:04:24.275Z,33.81
2018-07-27T11:05:24.292Z,33.61
2018-07-27T11:06:24.311Z,33.65
2018-07-27T11:07:24.302Z,33.59
2018-07-27T11:08:24.313Z,33.66
2018-07-27T11:09:24.317Z,33.69
2018-07-27T11:10:24.324Z,33.6
2018-07-27T11:11:24.328Z,33.66
2018-07-27T11:12:24.088Z,33.75
2018-07-27T11:13:24.549Z,33.76
2018-07-27T11:14:24.100Z,33.76
2018-07-27T11:15:24.563Z,33.75
2018-07-27T11:16:24.579Z,33.82
2018-07-27T11:17:24.683Z,33.94
2018-07-27T11:18:24.392Z,33.95
2018-07-27T11:19:24.143Z,33.95
2018-07-27T11:20:24.158Z,33.94
2018-07-27T11:21:24.157Z,33.87
2018-07-27T11:22:24.421Z,33.94
2018-07-27T11:23:24.424Z,34
2018-07-27T11:24:24.429Z,33.98
2018-07-27T11:25:24.445Z,34.05
2018-07-27T11:26:24.469Z,34.13
2018-07-27T11:27:24.458Z,34.03
2018-07-27T11:28:24.461Z,34.02
2018-07-27T11:29:24.220Z,33.98
2018-07-27T11:30:24.225Z,34.1
2018-07-27T11:31:24.237Z,34.06
2018-07-27T11:32:24.500Z,33.94
2018-07-27T11:33:24.507Z,34
2018-07-27T11:34:24.513Z,34.02
2018-07-27T11:35:24.521Z,34.05
2018-07-27T11:36:24.532Z,34.08
2018-07-27T11:37:24.728Z,34.08
2018-07-27T11:38:24.552Z,34.1
2018-07-27T11:39:24.560Z,34.21
2018-07-27T11:40:24.311Z,34.16
2018-07-27T11:41:24.597Z,34.19
2018-07-27T11:42:24.765Z,34.02
2018-07-27T11:43:24.585Z,33.81
2018-07-27T11:44:24.617Z,33.68
2018-07-27T11:45:24.595Z,33.57
2018-07-27T11:46:24.352Z,33.41
2018-07-27T11:47:24.619Z,33.39
2018-07-27T11:48:24.390Z,33.34
2018-07-27T11:49:24.719Z,33.31
2018-07-27T11:50:24.652Z,33.18
2018-07-27T11:51:24.668Z,33.15
2018-07-27T11:52:24.648Z,33.18
2018-07-27T11:53:24.406Z,33.18
2018-07-27T11:54:24.678Z,33.34
2018-07-27T11:55:24.686Z,33.35
2018-07-27T11:56:24.427Z,33.6
2018-07-27T11:57:24.706Z,33.61
2018-07-27T11:58:24.707Z,33.79
2018-07-27T11:59:24.701Z,33.84
2018-07-27T12:00:24.907Z,33.94
2018-07-27T12:01:24.720Z,33.9
2018-07-27T12:02:24.474Z,33.95
2018-07-27T12:03:24.743Z,34.06
2018-07-27T12:04:24.739Z,34.19
2018-07-27T12:05:24.755Z,34.24
2018-07-27T12:06:24.522Z,34.35
2018-07-27T12:07:24.772Z,34.43
2018-07-27T12:08:24.272Z,34.5
2018-07-27T12:09:24.276Z,34.25
2018-07-27T12:10:24.802Z,34.37
2018-07-27T12:11:24.603Z,34.35
2018-07-27T12:12:24.570Z,34.43
2018-07-27T12:13:24.579Z,34.46
2018-07-27T12:14:25.710Z,34.54
2018-07-27T12:15:25.325Z,34.53
2018-07-27T12:16:24.854Z,34.34
2018-07-27T12:17:24.845Z,34.24
2018-07-27T12:18:24.605Z,34.02
2018-07-27T12:19:24.610Z,33.79
2018-07-27T12:20:24.935Z,33.63
2018-07-27T12:21:24.403Z,33.49
2018-07-27T12:22:24.882Z,33.38
2018-07-27T12:23:24.891Z,33.39
2018-07-27T12:24:24.897Z,33.34
2018-07-27T12:25:24.903Z,33.31
2018-07-27T12:26:24.669Z,33.29
2018-07-27T12:27:24.923Z,33.38
2018-07-27T12:28:24.678Z,33.49
2018-07-27T12:29:24.944Z,33.45
2018-07-27T12:30:24.716Z,33.49
2018-07-27T12:31:24.952Z,33.45
2018-07-27T12:32:24.960Z,33.56
2018-07-27T12:33:24.974Z,33.68
2018-07-27T12:34:24.979Z,33.66
2018-07-27T12:35:24.731Z,33.63
2018-07-27T12:36:24.998Z,33.66
2018-07-27T12:37:24.998Z,33.66
2018-07-27T12:38:25.016Z,33.59
2018-07-27T12:39:24.761Z,33.45
2018-07-27T12:40:25.022Z,33.49
2018-07-27T12:41:25.028Z,33.41
2018-07-27T12:42:25.037Z,33.42
2018-07-27T12:43:25.045Z,33.37
2018-07-27T12:44:25.075Z,33.42
2018-07-27T12:45:25.060Z,33.44
2018-07-27T12:46:25.074Z,33.59
2018-07-27T12:47:25.078Z,33.51
2018-07-27T12:48:25.085Z,33.5
2018-07-27T12:49:25.110Z,33.56
2018-07-27T12:50:25.099Z,33.6
2018-07-27T12:51:25.338Z,33.59
2018-07-27T12:52:25.116Z,33.57
2018-07-27T12:53:25.132Z,33.57
2018-07-27T12:54:25.165Z,33.59
2018-07-27T12:55:25.133Z,33.53
2018-07-27T12:56:25.139Z,33.6
2018-07-27T12:57:25.150Z,33.61
2018-07-27T12:58:25.156Z,33.57
2018-07-27T12:59:25.239Z,33.63
2018-07-27T13:00:24.924Z,33.76